sensor_id;sensor_type;location;lat;lon;timestamp;P1;durP1;ratioP1;P2;durP2;ratioP2
14306;SDS011;7237;49.500;11.400;2023-04-01T00:01:22;2.23;;;1.17;;
14306;SDS011;7237;49.500;11.400;2023-04-01T00:03:49;2.40;;;1.00;;
14306;SDS011;7237;49.500;11.400;2023-04-01T00:06:17;3.30;;;1.40;;
14306;SDS011;7237;49.500;11.400;2023-04-01T00:08:44;1.73;;;1.07;;
14306;SDS011;7237;49.500;11.400;2023-04-01T00:11:11;3.47;;;1.30;;
14306;SDS011;7237;49.500;11.400;2023-04-01T00:13:38;2.10;;;1.00;;
14306;SDS011;7237;49.500;11.400;2023-04-01T00:16:05;3.53;;;1.20;;
14306;SDS011;7237;49.500;11.400;2023-04-01T00:18:33;1.13;;;0.70;;
14306;SDS011;7237;49.500;11.400;2023-04-01T00:21:00;1.63;;;0.90;;
14306;SDS011;7237;49.500;11.400;2023-04-01T00:23:27;2.50;;;0.97;;
14306;SDS011;7237;49.500;11.400;2023-04-01T00:25:54;3.97;;;1.40;;
14306;SDS011;7237;49.500;11.400;2023-04-01T00:28:21;3.57;;;1.30;;
14306;SDS011;7237;49.500;11.400;2023-04-01T00:30:47;3.10;;;1.10;;
14306;SDS011;7237;49.500;11.400;2023-04-01T00:33:15;2.03;;;1.07;;
14306;SDS011;7237;49.500;11.400;2023-04-01T00:35:44;3.40;;;1.10;;
14306;SDS011;7237;49.500;11.400;2023-04-01T00:38:10;3.20;;;1.10;;
14306;SDS011;7237;49.500;11.400;2023-04-01T00:40:38;1.80;;;0.90;;
14306;SDS011;7237;49.500;11.400;2023-04-01T00:43:09;1.50;;;0.90;;
14306;SDS011;7237;49.500;11.400;2023-04-01T00:45:38;3.27;;;1.07;;
14306;SDS011;7237;49.500;11.400;2023-04-01T00:48:08;0.80;;;0.70;;
14306;SDS011;7237;49.500;11.400;2023-04-01T00:50:39;3.30;;;0.87;;
14306;SDS011;7237;49.500;11.400;2023-04-01T00:53:09;2.77;;;0.80;;
14306;SDS011;7237;49.500;11.400;2023-04-01T00:55:39;1.80;;;0.77;;
14306;SDS011;7237;49.500;11.400;2023-04-01T00:58:11;1.97;;;0.80;;
14306;SDS011;7237;49.500;11.400;2023-04-01T01:00:41;2.57;;;0.90;;
14306;SDS011;7237;49.500;11.400;2023-04-01T01:03:08;1.93;;;1.03;;
14306;SDS011;7237;49.500;11.400;2023-04-01T01:05:38;2.27;;;1.00;;
14306;SDS011;7237;49.500;11.400;2023-04-01T01:08:22;1.57;;;0.77;;
14306;SDS011;7237;49.500;11.400;2023-04-01T01:10:58;1.63;;;1.00;;
14306;SDS011;7237;49.500;11.400;2023-04-01T01:13:25;1.87;;;0.83;;
14306;SDS011;7237;49.500;11.400;2023-04-01T01:15:57;4.60;;;1.00;;
14306;SDS011;7237;49.500;11.400;2023-04-01T01:18:27;1.43;;;0.77;;
14306;SDS011;7237;49.500;11.400;2023-04-01T01:21:23;1.37;;;0.80;;
14306;SDS011;7237;49.500;11.400;2023-04-01T01:24:11;2.80;;;1.20;;
14306;SDS011;7237;49.500;11.400;2023-04-01T01:26:57;1.80;;;0.90;;
14306;SDS011;7237;49.500;11.400;2023-04-01T01:29:35;1.23;;;0.73;;
14306;SDS011;7237;49.500;11.400;2023-04-01T01:32:13;2.70;;;1.00;;
14306;SDS011;7237;49.500;11.400;2023-04-01T01:34:48;1.03;;;0.80;;
14306;SDS011;7237;49.500;11.400;2023-04-01T01:37:25;2.03;;;0.80;;
14306;SDS011;7237;49.500;11.400;2023-04-01T01:39:55;1.47;;;0.87;;
14306;SDS011;7237;49.500;11.400;2023-04-01T01:42:24;1.83;;;0.90;;
14306;SDS011;7237;49.500;11.400;2023-04-01T01:44:53;1.60;;;0.80;;
14306;SDS011;7237;49.500;11.400;2023-04-01T01:47:23;1.17;;;0.90;;
14306;SDS011;7237;49.500;11.400;2023-04-01T01:49:50;1.77;;;1.00;;
14306;SDS011;7237;49.500;11.400;2023-04-01T01:52:18;3.30;;;0.90;;
14306;SDS011;7237;49.500;11.400;2023-04-01T01:54:50;1.90;;;0.90;;
14306;SDS011;7237;49.500;11.400;2023-04-01T01:57:19;1.70;;;0.50;;
14306;SDS011;7237;49.500;11.400;2023-04-01T01:59:49;1.30;;;0.60;;
14306;SDS011;7237;49.500;11.400;2023-04-01T02:02:18;1.67;;;0.70;;
14306;SDS011;7237;49.500;11.400;2023-04-01T02:04:47;1.07;;;0.77;;
14306;SDS011;7237;49.500;11.400;2023-04-01T02:07:16;1.87;;;0.80;;
14306;SDS011;7237;49.500;11.400;2023-04-01T02:09:46;1.60;;;0.60;;
14306;SDS011;7237;49.500;11.400;2023-04-01T02:12:15;2.43;;;0.63;;
14306;SDS011;7237;49.500;11.400;2023-04-01T02:14:44;0.60;;;0.60;;
14306;SDS011;7237;49.500;11.400;2023-04-01T02:17:15;2.23;;;0.63;;
14306;SDS011;7237;49.500;11.400;2023-04-01T02:19:46;2.73;;;0.80;;
14306;SDS011;7237;49.500;11.400;2023-04-01T02:22:16;1.00;;;0.53;;
14306;SDS011;7237;49.500;11.400;2023-04-01T02:24:46;1.60;;;0.80;;
14306;SDS011;7237;49.500;11.400;2023-04-01T02:27:16;1.73;;;0.70;;
14306;SDS011;7237;49.500;11.400;2023-04-01T02:29:44;0.60;;;0.60;;
14306;SDS011;7237;49.500;11.400;2023-04-01T02:32:11;0.97;;;0.73;;
14306;SDS011;7237;49.500;11.400;2023-04-01T02:34:40;1.73;;;0.93;;
14306;SDS011;7237;49.500;11.400;2023-04-01T02:37:08;0.73;;;0.63;;
14306;SDS011;7237;49.500;11.400;2023-04-01T02:39:35;1.23;;;0.70;;
14306;SDS011;7237;49.500;11.400;2023-04-01T02:42:02;2.67;;;0.67;;
14306;SDS011;7237;49.500;11.400;2023-04-01T02:44:30;1.43;;;0.77;;
14306;SDS011;7237;49.500;11.400;2023-04-01T02:46:57;2.03;;;0.90;;
14306;SDS011;7237;49.500;11.400;2023-04-01T02:49:23;0.87;;;0.57;;
14306;SDS011;7237;49.500;11.400;2023-04-01T02:51:50;1.83;;;0.77;;
14306;SDS011;7237;49.500;11.400;2023-04-01T02:54:17;1.70;;;0.50;;
14306;SDS011;7237;49.500;11.400;2023-04-01T02:56:44;1.97;;;0.70;;
14306;SDS011;7237;49.500;11.400;2023-04-01T02:59:11;0.50;;;0.50;;
14306;SDS011;7237;49.500;11.400;2023-04-01T03:01:39;2.23;;;0.80;;
14306;SDS011;7237;49.500;11.400;2023-04-01T03:04:06;0.83;;;0.70;;
14306;SDS011;7237;49.500;11.400;2023-04-01T03:06:33;0.53;;;0.40;;
14306;SDS011;7237;49.500;11.400;2023-04-01T03:08:59;0.70;;;0.63;;
14306;SDS011;7237;49.500;11.400;2023-04-01T03:11:27;1.70;;;0.80;;
14306;SDS011;7237;49.500;11.400;2023-04-01T03:13:54;1.50;;;0.70;;
14306;SDS011;7237;49.500;11.400;2023-04-01T03:16:20;1.43;;;0.63;;
14306;SDS011;7237;49.500;11.400;2023-04-01T03:18:48;1.10;;;0.67;;
14306;SDS011;7237;49.500;11.400;2023-04-01T03:21:18;1.40;;;0.73;;
14306;SDS011;7237;49.500;11.400;2023-04-01T03:23:45;0.83;;;0.60;;
14306;SDS011;7237;49.500;11.400;2023-04-01T03:26:12;0.67;;;0.53;;
14306;SDS011;7237;49.500;11.400;2023-04-01T03:28:39;1.63;;;0.73;;
14306;SDS011;7237;49.500;11.400;2023-04-01T03:31:06;1.37;;;0.70;;
14306;SDS011;7237;49.500;11.400;2023-04-01T03:33:32;2.03;;;0.50;;
14306;SDS011;7237;49.500;11.400;2023-04-01T03:36:01;3.60;;;0.60;;
14306;SDS011;7237;49.500;11.400;2023-04-01T03:38:28;2.10;;;0.70;;
14306;SDS011;7237;49.500;11.400;2023-04-01T03:40:55;0.50;;;0.50;;
14306;SDS011;7237;49.500;11.400;2023-04-01T03:43:21;1.50;;;0.70;;
14306;SDS011;7237;49.500;11.400;2023-04-01T03:45:49;3.20;;;1.07;;
14306;SDS011;7237;49.500;11.400;2023-04-01T03:48:17;0.90;;;0.67;;
14306;SDS011;7237;49.500;11.400;2023-04-01T03:50:44;2.70;;;0.90;;
14306;SDS011;7237;49.500;11.400;2023-04-01T03:53:12;1.47;;;0.50;;
14306;SDS011;7237;49.500;11.400;2023-04-01T03:55:40;0.97;;;0.60;;
14306;SDS011;7237;49.500;11.400;2023-04-01T03:58:07;0.90;;;0.50;;
14306;SDS011;7237;49.500;11.400;2023-04-01T04:00:34;0.80;;;0.60;;
14306;SDS011;7237;49.500;11.400;2023-04-01T04:03:01;1.07;;;0.67;;
14306;SDS011;7237;49.500;11.400;2023-04-01T04:05:28;1.80;;;0.50;;
14306;SDS011;7237;49.500;11.400;2023-04-01T04:07:56;2.50;;;0.90;;
14306;SDS011;7237;49.500;11.400;2023-04-01T04:10:24;3.67;;;0.80;;
14306;SDS011;7237;49.500;11.400;2023-04-01T04:12:51;1.57;;;0.70;;
14306;SDS011;7237;49.500;11.400;2023-04-01T04:15:18;1.67;;;0.70;;
14306;SDS011;7237;49.500;11.400;2023-04-01T04:17:45;2.13;;;0.67;;
14306;SDS011;7237;49.500;11.400;2023-04-01T04:20:12;2.17;;;0.90;;
14306;SDS011;7237;49.500;11.400;2023-04-01T04:22:38;3.03;;;0.83;;
14306;SDS011;7237;49.500;11.400;2023-04-01T04:25:05;1.97;;;0.90;;
14306;SDS011;7237;49.500;11.400;2023-04-01T04:27:34;2.87;;;0.90;;
14306;SDS011;7237;49.500;11.400;2023-04-01T04:30:01;1.70;;;0.70;;
14306;SDS011;7237;49.500;11.400;2023-04-01T04:32:29;2.57;;;0.87;;
14306;SDS011;7237;49.500;11.400;2023-04-01T04:34:56;1.50;;;0.77;;
14306;SDS011;7237;49.500;11.400;2023-04-01T04:37:23;1.57;;;0.80;;
14306;SDS011;7237;49.500;11.400;2023-04-01T04:39:50;4.13;;;0.83;;
14306;SDS011;7237;49.500;11.400;2023-04-01T04:42:17;2.10;;;0.87;;
14306;SDS011;7237;49.500;11.400;2023-04-01T04:44:45;1.53;;;0.70;;
14306;SDS011;7237;49.500;11.400;2023-04-01T04:47:12;2.47;;;0.83;;
14306;SDS011;7237;49.500;11.400;2023-04-01T04:49:39;1.70;;;0.70;;
14306;SDS011;7237;49.500;11.400;2023-04-01T04:52:05;2.77;;;0.87;;
14306;SDS011;7237;49.500;11.400;2023-04-01T04:54:32;1.40;;;0.70;;
14306;SDS011;7237;49.500;11.400;2023-04-01T04:56:59;2.10;;;0.97;;
14306;SDS011;7237;49.500;11.400;2023-04-01T04:59:26;0.73;;;0.73;;
14306;SDS011;7237;49.500;11.400;2023-04-01T05:01:54;1.10;;;0.80;;
14306;SDS011;7237;49.500;11.400;2023-04-01T05:04:20;1.23;;;0.60;;
14306;SDS011;7237;49.500;11.400;2023-04-01T05:06:47;2.40;;;0.90;;
14306;SDS011;7237;49.500;11.400;2023-04-01T05:09:14;0.90;;;0.80;;
14306;SDS011;7237;49.500;11.400;2023-04-01T05:11:41;1.03;;;0.50;;
14306;SDS011;7237;49.500;11.400;2023-04-01T05:14:11;0.97;;;0.50;;
14306;SDS011;7237;49.500;11.400;2023-04-01T05:16:39;2.43;;;0.80;;
14306;SDS011;7237;49.500;11.400;2023-04-01T05:19:07;0.47;;;0.43;;
14306;SDS011;7237;49.500;11.400;2023-04-01T05:21:33;2.30;;;1.07;;
14306;SDS011;7237;49.500;11.400;2023-04-01T05:24:00;1.07;;;0.67;;
14306;SDS011;7237;49.500;11.400;2023-04-01T05:26:27;1.43;;;0.83;;
14306;SDS011;7237;49.500;11.400;2023-04-01T05:28:53;1.70;;;0.87;;
14306;SDS011;7237;49.500;11.400;2023-04-01T05:31:20;0.50;;;0.50;;
14306;SDS011;7237;49.500;11.400;2023-04-01T05:33:48;0.97;;;0.60;;
14306;SDS011;7237;49.500;11.400;2023-04-01T05:36:16;2.93;;;0.93;;
14306;SDS011;7237;49.500;11.400;2023-04-01T05:38:43;2.57;;;1.03;;
14306;SDS011;7237;49.500;11.400;2023-04-01T05:41:12;0.90;;;0.90;;
14306;SDS011;7237;49.500;11.400;2023-04-01T05:43:39;0.87;;;0.87;;
14306;SDS011;7237;49.500;11.400;2023-04-01T05:46:06;2.73;;;1.10;;
14306;SDS011;7237;49.500;11.400;2023-04-01T05:48:33;2.63;;;0.53;;
14306;SDS011;7237;49.500;11.400;2023-04-01T05:51:01;0.73;;;0.60;;
14306;SDS011;7237;49.500;11.400;2023-04-01T05:53:29;2.70;;;1.00;;
14306;SDS011;7237;49.500;11.400;2023-04-01T05:55:55;0.67;;;0.57;;
14306;SDS011;7237;49.500;11.400;2023-04-01T05:58:22;2.47;;;0.63;;
14306;SDS011;7237;49.500;11.400;2023-04-01T06:00:49;0.73;;;0.60;;
14306;SDS011;7237;49.500;11.400;2023-04-01T06:03:16;1.07;;;0.57;;
14306;SDS011;7237;49.500;11.400;2023-04-01T06:05:43;0.40;;;0.40;;
14306;SDS011;7237;49.500;11.400;2023-04-01T06:08:11;0.60;;;0.43;;
14306;SDS011;7237;49.500;11.400;2023-04-01T06:10:47;0.57;;;0.40;;
14306;SDS011;7237;49.500;11.400;2023-04-01T06:13:24;0.93;;;0.40;;
14306;SDS011;7237;49.500;11.400;2023-04-01T06:16:01;1.20;;;0.73;;
14306;SDS011;7237;49.500;11.400;2023-04-01T06:18:45;0.57;;;0.50;;
14306;SDS011;7237;49.500;11.400;2023-04-01T06:21:30;1.80;;;0.60;;
14306;SDS011;7237;49.500;11.400;2023-04-01T06:24:28;2.00;;;0.80;;
14306;SDS011;7237;49.500;11.400;2023-04-01T06:27:10;1.23;;;0.70;;
14306;SDS011;7237;49.500;11.400;2023-04-01T06:29:50;1.33;;;0.57;;
14306;SDS011;7237;49.500;11.400;2023-04-01T06:32:41;2.30;;;0.70;;
14306;SDS011;7237;49.500;11.400;2023-04-01T06:35:43;1.87;;;0.80;;
14306;SDS011;7237;49.500;11.400;2023-04-01T06:41:25;1.17;;;0.67;;
14306;SDS011;7237;49.500;11.400;2023-04-01T06:44:18;0.43;;;0.43;;
14306;SDS011;7237;49.500;11.400;2023-04-01T06:46:51;2.97;;;0.60;;
14306;SDS011;7237;49.500;11.400;2023-04-01T06:49:33;1.00;;;0.57;;
14306;SDS011;7237;49.500;11.400;2023-04-01T06:52:12;0.53;;;0.50;;
14306;SDS011;7237;49.500;11.400;2023-04-01T06:54:48;1.57;;;1.13;;
14306;SDS011;7237;49.500;11.400;2023-04-01T06:57:20;2.33;;;1.03;;
14306;SDS011;7237;49.500;11.400;2023-04-01T06:59:55;0.97;;;0.73;;
14306;SDS011;7237;49.500;11.400;2023-04-01T07:02:25;2.13;;;0.80;;
14306;SDS011;7237;49.500;11.400;2023-04-01T07:04:58;1.80;;;0.83;;
14306;SDS011;7237;49.500;11.400;2023-04-01T07:07:29;0.80;;;0.67;;
14306;SDS011;7237;49.500;11.400;2023-04-01T07:10:02;3.50;;;1.00;;
14306;SDS011;7237;49.500;11.400;2023-04-01T07:12:34;1.87;;;0.90;;
14306;SDS011;7237;49.500;11.400;2023-04-01T07:15:14;1.23;;;0.90;;
14306;SDS011;7237;49.500;11.400;2023-04-01T07:17:45;0.63;;;0.63;;
14306;SDS011;7237;49.500;11.400;2023-04-01T07:20:17;0.53;;;0.47;;
14306;SDS011;7237;49.500;11.400;2023-04-01T07:22:49;2.13;;;0.70;;
14306;SDS011;7237;49.500;11.400;2023-04-01T07:25:18;1.90;;;0.80;;
14306;SDS011;7237;49.500;11.400;2023-04-01T07:27:50;0.60;;;0.60;;
14306;SDS011;7237;49.500;11.400;2023-04-01T07:30:21;0.67;;;0.50;;
14306;SDS011;7237;49.500;11.400;2023-04-01T07:32:50;0.83;;;0.60;;
14306;SDS011;7237;49.500;11.400;2023-04-01T07:35:26;1.47;;;0.77;;
14306;SDS011;7237;49.500;11.400;2023-04-01T07:38:05;2.23;;;0.67;;
14306;SDS011;7237;49.500;11.400;2023-04-01T07:40:43;1.00;;;0.57;;
14306;SDS011;7237;49.500;11.400;2023-04-01T07:43:18;1.03;;;0.60;;
14306;SDS011;7237;49.500;11.400;2023-04-01T07:45:55;1.50;;;0.77;;
14306;SDS011;7237;49.500;11.400;2023-04-01T07:48:30;0.63;;;0.50;;
14306;SDS011;7237;49.500;11.400;2023-04-01T07:51:06;3.60;;;0.63;;
14306;SDS011;7237;49.500;11.400;2023-04-01T07:53:42;1.13;;;0.80;;
14306;SDS011;7237;49.500;11.400;2023-04-01T07:56:14;0.70;;;0.70;;
14306;SDS011;7237;49.500;11.400;2023-04-01T07:58:51;1.50;;;0.80;;
14306;SDS011;7237;49.500;11.400;2023-04-01T08:01:30;0.80;;;0.80;;
14306;SDS011;7237;49.500;11.400;2023-04-01T08:04:07;1.30;;;0.77;;
14306;SDS011;7237;49.500;11.400;2023-04-01T08:06:44;1.47;;;0.80;;
14306;SDS011;7237;49.500;11.400;2023-04-01T08:09:20;1.13;;;0.80;;
14306;SDS011;7237;49.500;11.400;2023-04-01T08:11:58;4.17;;;1.77;;
14306;SDS011;7237;49.500;11.400;2023-04-01T08:14:36;0.70;;;0.70;;
14306;SDS011;7237;49.500;11.400;2023-04-01T08:17:15;1.50;;;0.67;;
14306;SDS011;7237;49.500;11.400;2023-04-01T08:19:52;1.20;;;0.67;;
14306;SDS011;7237;49.500;11.400;2023-04-01T08:22:27;1.50;;;0.73;;
14306;SDS011;7237;49.500;11.400;2023-04-01T08:24:56;1.60;;;1.50;;
14306;SDS011;7237;49.500;11.400;2023-04-01T08:27:28;1.60;;;0.90;;
14306;SDS011;7237;49.500;11.400;2023-04-01T08:30:03;1.73;;;0.90;;
14306;SDS011;7237;49.500;11.400;2023-04-01T08:32:34;0.67;;;0.60;;
14306;SDS011;7237;49.500;11.400;2023-04-01T08:35:07;1.10;;;0.70;;
14306;SDS011;7237;49.500;11.400;2023-04-01T08:37:40;1.50;;;0.83;;
14306;SDS011;7237;49.500;11.400;2023-04-01T08:40:16;2.67;;;0.83;;
14306;SDS011;7237;49.500;11.400;2023-04-01T08:43:05;2.37;;;0.93;;
14306;SDS011;7237;49.500;11.400;2023-04-01T08:45:40;1.00;;;0.67;;
14306;SDS011;7237;49.500;11.400;2023-04-01T08:48:38;1.88;;;0.80;;
14306;SDS011;7237;49.500;11.400;2023-04-01T08:54:08;1.55;;;0.80;;
14306;SDS011;7237;49.500;11.400;2023-04-01T08:56:40;0.50;;;0.50;;
14306;SDS011;7237;49.500;11.400;2023-04-01T08:59:16;0.80;;;0.47;;
14306;SDS011;7237;49.500;11.400;2023-04-01T09:02:16;0.60;;;0.60;;
14306;SDS011;7237;49.500;11.400;2023-04-01T09:05:22;3.50;;;1.43;;
14306;SDS011;7237;49.500;11.400;2023-04-01T09:08:03;1.27;;;0.70;;
14306;SDS011;7237;49.500;11.400;2023-04-01T09:10:46;1.87;;;0.73;;
14306;SDS011;7237;49.500;11.400;2023-04-01T09:16:20;1.17;;;0.70;;
14306;SDS011;7237;49.500;11.400;2023-04-01T09:19:10;1.57;;;1.00;;
14306;SDS011;7237;49.500;11.400;2023-04-01T09:27:56;0.70;;;0.60;;
14306;SDS011;7237;49.500;11.400;2023-04-01T09:36:02;1.03;;;0.93;;
14306;SDS011;7237;49.500;11.400;2023-04-01T09:38:33;0.70;;;0.60;;
14306;SDS011;7237;49.500;11.400;2023-04-01T09:41:03;1.23;;;0.80;;
14306;SDS011;7237;49.500;11.400;2023-04-01T09:43:42;0.40;;;0.40;;
14306;SDS011;7237;49.500;11.400;2023-04-01T09:46:14;0.73;;;0.50;;
14306;SDS011;7237;49.500;11.400;2023-04-01T09:48:53;2.00;;;0.50;;
14306;SDS011;7237;49.500;11.400;2023-04-01T09:51:26;0.47;;;0.47;;
14306;SDS011;7237;49.500;11.400;2023-04-01T09:54:00;1.80;;;0.80;;
14306;SDS011;7237;49.500;11.400;2023-04-01T10:02:07;0.70;;;0.70;;
14306;SDS011;7237;49.500;11.400;2023-04-01T10:07:54;1.47;;;0.70;;
14306;SDS011;7237;49.500;11.400;2023-04-01T10:10:36;0.90;;;0.70;;
14306;SDS011;7237;49.500;11.400;2023-04-01T10:16:07;1.17;;;0.70;;
14306;SDS011;7237;49.500;11.400;2023-04-01T10:21:33;1.10;;;0.80;;
14306;SDS011;7237;49.500;11.400;2023-04-01T10:32:49;1.00;;;0.83;;
14306;SDS011;7237;49.500;11.400;2023-04-01T10:35:24;1.00;;;0.73;;
14306;SDS011;7237;49.500;11.400;2023-04-01T10:49:08;1.63;;;1.00;;
14306;SDS011;7237;49.500;11.400;2023-04-01T10:51:41;3.70;;;1.20;;
14306;SDS011;7237;49.500;11.400;2023-04-01T10:54:21;1.00;;;0.90;;
14306;SDS011;7237;49.500;11.400;2023-04-01T10:56:56;0.80;;;0.80;;
14306;SDS011;7237;49.500;11.400;2023-04-01T10:59:35;1.00;;;1.00;;
14306;SDS011;7237;49.500;11.400;2023-04-01T11:02:19;1.20;;;1.10;;
14306;SDS011;7237;49.500;11.400;2023-04-01T11:05:17;1.20;;;0.90;;
14306;SDS011;7237;49.500;11.400;2023-04-01T11:07:58;1.20;;;1.10;;
14306;SDS011;7237;49.500;11.400;2023-04-01T11:10:38;4.60;;;3.43;;
14306;SDS011;7237;49.500;11.400;2023-04-01T11:19:02;0.70;;;0.70;;
14306;SDS011;7237;49.500;11.400;2023-04-01T11:24:26;1.13;;;0.90;;
14306;SDS011;7237;49.500;11.400;2023-04-01T11:27:00;0.60;;;0.60;;
14306;SDS011;7237;49.500;11.400;2023-04-01T11:29:34;0.93;;;0.77;;
14306;SDS011;7237;49.500;11.400;2023-04-01T11:32:07;1.27;;;1.10;;
14306;SDS011;7237;49.500;11.400;2023-04-01T11:34:45;2.07;;;1.27;;
14306;SDS011;7237;49.500;11.400;2023-04-01T11:37:21;0.83;;;0.60;;
14306;SDS011;7237;49.500;11.400;2023-04-01T11:39:56;0.90;;;0.90;;
14306;SDS011;7237;49.500;11.400;2023-04-01T11:42:27;0.77;;;0.77;;
14306;SDS011;7237;49.500;11.400;2023-04-01T11:44:58;1.70;;;0.93;;
14306;SDS011;7237;49.500;11.400;2023-04-01T11:47:35;0.70;;;0.70;;
14306;SDS011;7237;49.500;11.400;2023-04-01T11:50:17;0.77;;;0.77;;
14306;SDS011;7237;49.500;11.400;2023-04-01T11:52:57;7.10;;;5.03;;
14306;SDS011;7237;49.500;11.400;2023-04-01T11:55:31;0.73;;;0.73;;
14306;SDS011;7237;49.500;11.400;2023-04-01T11:58:04;0.80;;;0.60;;
14306;SDS011;7237;49.500;11.400;2023-04-01T12:00:37;3.10;;;0.80;;
14306;SDS011;7237;49.500;11.400;2023-04-01T12:03:11;0.60;;;0.60;;
14306;SDS011;7237;49.500;11.400;2023-04-01T12:05:44;0.97;;;0.90;;
14306;SDS011;7237;49.500;11.400;2023-04-01T12:08:15;0.90;;;0.90;;
14306;SDS011;7237;49.500;11.400;2023-04-01T12:10:48;0.80;;;0.80;;
14306;SDS011;7237;49.500;11.400;2023-04-01T12:13:24;0.60;;;0.60;;
14306;SDS011;7237;49.500;11.400;2023-04-01T12:16:04;0.43;;;0.43;;
14306;SDS011;7237;49.500;11.400;2023-04-01T12:18:35;0.60;;;0.60;;
14306;SDS011;7237;49.500;11.400;2023-04-01T12:21:08;0.60;;;0.60;;
14306;SDS011;7237;49.500;11.400;2023-04-01T12:23:39;1.33;;;0.70;;
14306;SDS011;7237;49.500;11.400;2023-04-01T12:26:19;1.40;;;0.90;;
14306;SDS011;7237;49.500;11.400;2023-04-01T12:28:57;1.17;;;0.70;;
14306;SDS011;7237;49.500;11.400;2023-04-01T12:31:31;1.13;;;1.00;;
14306;SDS011;7237;49.500;11.400;2023-04-01T12:36:50;1.20;;;0.83;;
14306;SDS011;7237;49.500;11.400;2023-04-01T12:39:22;1.47;;;1.00;;
14306;SDS011;7237;49.500;11.400;2023-04-01T12:41:58;0.90;;;0.90;;
14306;SDS011;7237;49.500;11.400;2023-04-01T12:44:29;0.93;;;0.83;;
14306;SDS011;7237;49.500;11.400;2023-04-01T12:47:05;1.73;;;1.20;;
14306;SDS011;7237;49.500;11.400;2023-04-01T12:52:18;1.77;;;0.60;;
14306;SDS011;7237;49.500;11.400;2023-04-01T12:55:01;1.48;;;1.13;;
14306;SDS011;7237;49.500;11.400;2023-04-01T12:57:45;0.70;;;0.70;;
14306;SDS011;7237;49.500;11.400;2023-04-01T13:00:20;0.63;;;0.63;;
14306;SDS011;7237;49.500;11.400;2023-04-01T13:02:54;1.90;;;1.07;;
14306;SDS011;7237;49.500;11.400;2023-04-01T13:08:08;1.10;;;0.80;;
14306;SDS011;7237;49.500;11.400;2023-04-01T13:13:28;1.27;;;0.90;;
14306;SDS011;7237;49.500;11.400;2023-04-01T13:15:57;1.07;;;0.97;;
14306;SDS011;7237;49.500;11.400;2023-04-01T13:18:28;0.90;;;0.90;;
14306;SDS011;7237;49.500;11.400;2023-04-01T13:21:00;1.20;;;1.10;;
14306;SDS011;7237;49.500;11.400;2023-04-01T13:23:33;0.60;;;0.60;;
14306;SDS011;7237;49.500;11.400;2023-04-01T13:26:05;0.70;;;0.70;;
14306;SDS011;7237;49.500;11.400;2023-04-01T13:28:36;0.57;;;0.57;;
14306;SDS011;7237;49.500;11.400;2023-04-01T13:31:05;0.80;;;0.80;;
14306;SDS011;7237;49.500;11.400;2023-04-01T13:33:36;2.23;;;0.70;;
14306;SDS011;7237;49.500;11.400;2023-04-01T13:36:12;2.53;;;1.33;;
14306;SDS011;7237;49.500;11.400;2023-04-01T13:38:48;1.43;;;0.93;;
14306;SDS011;7237;49.500;11.400;2023-04-01T13:41:22;0.50;;;0.50;;
14306;SDS011;7237;49.500;11.400;2023-04-01T13:43:55;0.57;;;0.57;;
14306;SDS011;7237;49.500;11.400;2023-04-01T13:46:30;0.67;;;0.67;;
14306;SDS011;7237;49.500;11.400;2023-04-01T13:49:07;0.77;;;0.70;;
14306;SDS011;7237;49.500;11.400;2023-04-01T13:54:37;0.60;;;0.60;;
14306;SDS011;7237;49.500;11.400;2023-04-01T13:57:17;1.03;;;0.70;;
14306;SDS011;7237;49.500;11.400;2023-04-01T13:59:55;0.50;;;0.50;;
14306;SDS011;7237;49.500;11.400;2023-04-01T14:02:29;1.30;;;0.80;;
14306;SDS011;7237;49.500;11.400;2023-04-01T14:05:09;1.13;;;0.70;;
14306;SDS011;7237;49.500;11.400;2023-04-01T14:07:46;1.07;;;1.07;;
14306;SDS011;7237;49.500;11.400;2023-04-01T14:10:18;0.77;;;0.77;;
14306;SDS011;7237;49.500;11.400;2023-04-01T14:12:47;1.00;;;0.77;;
14306;SDS011;7237;49.500;11.400;2023-04-01T14:15:32;0.70;;;0.70;;
14306;SDS011;7237;49.500;11.400;2023-04-01T14:20:47;2.93;;;2.53;;
14306;SDS011;7237;49.500;11.400;2023-04-01T14:26:16;1.50;;;1.37;;
14306;SDS011;7237;49.500;11.400;2023-04-01T14:28:46;0.50;;;0.50;;
14306;SDS011;7237;49.500;11.400;2023-04-01T14:31:36;0.60;;;0.60;;
14306;SDS011;7237;49.500;11.400;2023-04-01T14:34:09;0.80;;;0.80;;
14306;SDS011;7237;49.500;11.400;2023-04-01T14:36:43;1.20;;;1.10;;
14306;SDS011;7237;49.500;11.400;2023-04-01T14:39:15;2.77;;;1.00;;
14306;SDS011;7237;49.500;11.400;2023-04-01T14:41:51;1.10;;;1.03;;
14306;SDS011;7237;49.500;11.400;2023-04-01T14:44:29;1.00;;;1.00;;
14306;SDS011;7237;49.500;11.400;2023-04-01T14:47:10;1.17;;;1.07;;
14306;SDS011;7237;49.500;11.400;2023-04-01T14:49:41;1.00;;;1.00;;
14306;SDS011;7237;49.500;11.400;2023-04-01T14:52:10;1.07;;;1.07;;
14306;SDS011;7237;49.500;11.400;2023-04-01T14:54:41;1.00;;;1.00;;
14306;SDS011;7237;49.500;11.400;2023-04-01T14:57:10;1.37;;;1.27;;
14306;SDS011;7237;49.500;11.400;2023-04-01T14:59:45;4.93;;;1.47;;
14306;SDS011;7237;49.500;11.400;2023-04-01T15:02:18;6.70;;;4.10;;
14306;SDS011;7237;49.500;11.400;2023-04-01T15:04:53;16.07;;;10.93;;
14306;SDS011;7237;49.500;11.400;2023-04-01T15:07:27;11.17;;;9.17;;
14306;SDS011;7237;49.500;11.400;2023-04-01T15:09:57;6.77;;;6.10;;
14306;SDS011;7237;49.500;11.400;2023-04-01T15:12:29;8.40;;;6.60;;
14306;SDS011;7237;49.500;11.400;2023-04-01T15:17:45;5.90;;;4.60;;
14306;SDS011;7237;49.500;11.400;2023-04-01T15:20:21;3.27;;;2.97;;
14306;SDS011;7237;49.500;11.400;2023-04-01T15:22:57;2.40;;;2.20;;
14306;SDS011;7237;49.500;11.400;2023-04-01T15:25:30;2.33;;;1.70;;
14306;SDS011;7237;49.500;11.400;2023-04-01T15:28:00;2.43;;;1.90;;
14306;SDS011;7237;49.500;11.400;2023-04-01T15:30:29;1.80;;;1.70;;
14306;SDS011;7237;49.500;11.400;2023-04-01T15:33:02;1.00;;;1.00;;
14306;SDS011;7237;49.500;11.400;2023-04-01T15:35:36;1.17;;;1.17;;
14306;SDS011;7237;49.500;11.400;2023-04-01T15:38:06;1.90;;;1.00;;
14306;SDS011;7237;49.500;11.400;2023-04-01T15:40:37;0.80;;;0.80;;
14306;SDS011;7237;49.500;11.400;2023-04-01T15:43:15;1.37;;;1.27;;
14306;SDS011;7237;49.500;11.400;2023-04-01T15:45:49;1.70;;;1.60;;
14306;SDS011;7237;49.500;11.400;2023-04-01T15:48:26;1.43;;;1.33;;
14306;SDS011;7237;49.500;11.400;2023-04-01T15:53:37;1.50;;;1.23;;
14306;SDS011;7237;49.500;11.400;2023-04-01T15:56:11;1.60;;;1.50;;
14306;SDS011;7237;49.500;11.400;2023-04-01T15:58:46;1.30;;;1.20;;
14306;SDS011;7237;49.500;11.400;2023-04-01T16:01:18;1.00;;;1.00;;
14306;SDS011;7237;49.500;11.400;2023-04-01T16:03:52;2.87;;;1.60;;
14306;SDS011;7237;49.500;11.400;2023-04-01T16:09:13;6.63;;;3.07;;
14306;SDS011;7237;49.500;11.400;2023-04-01T16:11:47;1.50;;;1.40;;
14306;SDS011;7237;49.500;11.400;2023-04-01T16:14:18;2.33;;;2.13;;
14306;SDS011;7237;49.500;11.400;2023-04-01T16:16:53;1.90;;;1.80;;
14306;SDS011;7237;49.500;11.400;2023-04-01T16:19:33;2.20;;;2.00;;
14306;SDS011;7237;49.500;11.400;2023-04-01T16:22:05;2.40;;;2.20;;
14306;SDS011;7237;49.500;11.400;2023-04-01T16:24:34;3.17;;;2.70;;
14306;SDS011;7237;49.500;11.400;2023-04-01T16:27:02;2.73;;;2.00;;
14306;SDS011;7237;49.500;11.400;2023-04-01T16:29:34;3.90;;;3.53;;
14306;SDS011;7237;49.500;11.400;2023-04-01T16:32:12;2.83;;;2.50;;
14306;SDS011;7237;49.500;11.400;2023-04-01T16:34:43;2.50;;;2.07;;
14306;SDS011;7237;49.500;11.400;2023-04-01T16:37:11;2.33;;;2.17;;
14306;SDS011;7237;49.500;11.400;2023-04-01T16:39:42;2.43;;;2.23;;
14306;SDS011;7237;49.500;11.400;2023-04-01T16:42:24;1.80;;;1.70;;
14306;SDS011;7237;49.500;11.400;2023-04-01T16:44:53;1.63;;;1.47;;
14306;SDS011;7237;49.500;11.400;2023-04-01T16:47:22;2.17;;;1.97;;
14306;SDS011;7237;49.500;11.400;2023-04-01T16:49:56;1.53;;;1.10;;
14306;SDS011;7237;49.500;11.400;2023-04-01T16:52:30;1.37;;;1.17;;